PWSweather.com
Personal Weather Stations
Station Observations
GEELONGWX1
Bell Post Hill, GeelongAU

Bell Post HillGeelongAU

Lat: -38.101, Lon: 144.326

Elevation: 204

Station Type: Davis Vantage Pro2

http://www.geelongweather.com

High Low Average
Temperature 75.3°F24.1°C 50.8°F10.4°C 63.2°F17.3°C
Dew Point 52.1°F11.2°C 44.6°F7.0°C 49.1°F9.5°C
Winds 14.6 mph 23.5 kmh Calm Calm 4.0 mph W6.4 kmh W
Wind Gusts 17.0 mph27.4 kmh -- 7.0 mph11.3 kmh
Humidity 90% 35% 64%
Pressure 29.73 in1006.8 mb 29.57 in1001.4 mb -
Precipitation 0.03 in0.8 mm - -
Hour Temp Dew Point Humidity Winds Wind Gusts Pressure Precip Precip Rate Daily Precip Total
12:00 AM 56.8°F13.8°C 50.7°F10.4°C 80% 3.4 mph WNW5.5 kmh WNW 14.0 mph22.5 kmh 29.57 in1001.4 mb 0.00 in0.0 mm 0.00 in/hr0.0 mm/hr 0.00 in0.0 mm
12:10 AM 56.7°F13.7°C 50.9°F10.5°C 81% 8.1 mph N13.0 kmh N 13.0 mph20.9 kmh 29.58 in1001.7 mb 0.00 in0.0 mm 0.00 in/hr0.0 mm/hr 0.00 in0.0 mm
12:20 AM 56.6°F13.7°C 50.5°F10.3°C 80% 5.9 mph WSW9.5 kmh WSW 7.0 mph11.3 kmh 29.58 in1001.7 mb 0.00 in0.0 mm 0.00 in/hr0.0 mm/hr 0.00 in0.0 mm
12:30 AM 56.4°F13.6°C 50.3°F10.2°C 80% 4.2 mph W6.8 kmh W 9.0 mph14.5 kmh 29.58 in1001.7 mb 0.00 in0.0 mm 0.00 in/hr0.0 mm/hr 0.00 in0.0 mm
12:40 AM 56.2°F13.4°C 50.4°F10.2°C 81% 3.4 mph N5.5 kmh N 6.0 mph9.7 kmh 29.59 in1002.0 mb 0.00 in0.0 mm 0.00 in/hr0.0 mm/hr 0.00 in0.0 mm
12:50 AM 56.0°F13.3°C 50.3°F10.2°C 81% 2.6 mph WSW4.2 kmh WSW 9.0 mph14.5 kmh 29.60 in1002.4 mb 0.00 in0.0 mm 0.00 in/hr0.0 mm/hr 0.00 in0.0 mm
01:00 AM 55.9°F13.3°C 50.5°F10.3°C 82% 1.3 mph N2.1 kmh N 5.0 mph8.0 kmh 29.60 in1002.4 mb 0.00 in0.0 mm 0.00 in/hr0.0 mm/hr 0.00 in0.0 mm
01:10 AM 55.9°F13.3°C 51.2°F10.7°C 84% 1.9 mph W3.1 kmh W 8.0 mph12.9 kmh 29.60 in1002.4 mb 0.00 in0.0 mm 0.00 in/hr0.0 mm/hr 0.00 in0.0 mm
01:20 AM 55.8°F13.2°C 51.7°F10.9°C 86% Calm Calm -- 29.61 in1002.7 mb 0.00 in0.0 mm 0.00 in/hr0.0 mm/hr 0.00 in0.0 mm
01:30 AM 55.5°F13.1°C 51.4°F10.8°C 86% 1.2 mph N1.9 kmh N 5.0 mph8.0 kmh 29.61 in1002.7 mb 0.00 in0.0 mm 0.00 in/hr0.0 mm/hr 0.00 in0.0 mm
01:40 AM 55.5°F13.1°C 51.7°F10.9°C 87% 3.1 mph N5.0 kmh N 4.0 mph6.4 kmh 29.61 in1002.7 mb 0.00 in0.0 mm 0.00 in/hr0.0 mm/hr 0.00 in0.0 mm
01:50 AM 55.6°F13.1°C 51.8°F11.0°C 87% 5.2 mph W8.4 kmh W 10.0 mph16.1 kmh 29.61 in1002.7 mb 0.00 in0.0 mm 0.00 in/hr0.0 mm/hr 0.00 in0.0 mm
02:00 AM 55.4°F13.0°C 51.6°F10.9°C 87% 3.8 mph W6.1 kmh W 8.0 mph12.9 kmh 29.61 in1002.7 mb 0.00 in0.0 mm 0.00 in/hr0.0 mm/hr 0.00 in0.0 mm
02:10 AM 55.0°F12.8°C 51.5°F10.8°C 88% 2.5 mph WNW4.0 kmh WNW 9.0 mph14.5 kmh 29.61 in1002.7 mb 0.01 in0.3 mm 0.06 in/hr1.5 mm/hr 0.01 in0.3 mm
02:20 AM 54.8°F12.7°C 51.6°F10.9°C 89% 3.6 mph NW5.8 kmh NW 7.0 mph11.3 kmh 29.61 in1002.7 mb 0.00 in0.0 mm 0.00 in/hr0.0 mm/hr 0.01 in0.3 mm
02:30 AM 54.5°F12.5°C 51.3°F10.7°C 89% 4.3 mph WNW6.9 kmh WNW 7.0 mph11.3 kmh 29.61 in1002.7 mb 0.00 in0.0 mm 0.00 in/hr0.0 mm/hr 0.01 in0.3 mm
02:40 AM 54.3°F12.4°C 51.4°F10.8°C 90% 4.4 mph W7.1 kmh W 7.0 mph11.3 kmh 29.61 in1002.7 mb 0.00 in0.0 mm 0.00 in/hr0.0 mm/hr 0.01 in0.3 mm
02:50 AM 54.3°F12.4°C 51.4°F10.8°C 90% 6.1 mph NW9.8 kmh NW 9.0 mph14.5 kmh 29.62 in1003.0 mb 0.00 in0.0 mm 0.00 in/hr0.0 mm/hr 0.01 in0.3 mm
03:00 AM 54.3°F12.4°C 51.4°F10.8°C 90% 3.9 mph WNW6.3 kmh WNW 8.0 mph12.9 kmh 29.62 in1003.0 mb 0.00 in0.0 mm 0.00 in/hr0.0 mm/hr 0.01 in0.3 mm
03:10 AM 54.3°F12.4°C 51.1°F10.6°C 89% 5.8 mph N9.3 kmh N 9.0 mph14.5 kmh 29.62 in1003.0 mb 0.01 in0.3 mm 0.06 in/hr1.5 mm/hr 0.02 in0.5 mm
03:20 AM 54.4°F12.4°C 51.2°F10.7°C 89% 3.9 mph NW6.3 kmh NW 6.0 mph9.7 kmh 29.62 in1003.0 mb 0.01 in0.3 mm 0.06 in/hr1.5 mm/hr 0.02 in0.5 mm
03:30 AM 54.4°F12.4°C 51.2°F10.7°C 89% 7.5 mph WSW12.1 kmh WSW 17.0 mph27.4 kmh 29.62 in1003.0 mb 0.00 in0.0 mm 0.00 in/hr0.0 mm/hr 0.02 in0.5 mm
03:40 AM 54.2°F12.3°C 50.4°F10.2°C 87% 2.9 mph WNW4.7 kmh WNW 5.0 mph8.0 kmh 29.62 in1003.0 mb 0.00 in0.0 mm 0.00 in/hr0.0 mm/hr 0.02 in0.5 mm
03:50 AM 54.1°F12.3°C 50.6°F10.3°C 88% 5.5 mph NW8.9 kmh NW 7.0 mph11.3 kmh 29.62 in1003.0 mb 0.00 in0.0 mm 0.00 in/hr0.0 mm/hr 0.02 in0.5 mm
04:00 AM 53.9°F12.2°C 50.7°F10.4°C 89% 5.2 mph NW8.4 kmh NW 7.0 mph11.3 kmh 29.62 in1003.0 mb 0.00 in0.0 mm 0.00 in/hr0.0 mm/hr 0.02 in0.5 mm
04:10 AM 53.6°F12.0°C 50.2°F10.1°C 88% 5.7 mph N9.2 kmh N 9.0 mph14.5 kmh 29.62 in1003.0 mb 0.00 in0.0 mm 0.00 in/hr0.0 mm/hr 0.02 in0.5 mm
04:20 AM 53.3°F11.8°C 49.8°F9.9°C 88% 5.4 mph WNW8.7 kmh WNW 9.0 mph14.5 kmh 29.63 in1003.4 mb 0.00 in0.0 mm 0.00 in/hr0.0 mm/hr 0.02 in0.5 mm
04:30 AM 53.0°F11.7°C 49.5°F9.7°C 88% 4.6 mph NW7.4 kmh NW 9.0 mph14.5 kmh 29.63 in1003.4 mb 0.00 in0.0 mm 0.00 in/hr0.0 mm/hr 0.02 in0.5 mm
04:40 AM 52.8°F11.6°C 49.3°F9.6°C 88% 4.5 mph WNW7.2 kmh WNW 9.0 mph14.5 kmh 29.63 in1003.4 mb 0.00 in0.0 mm 0.00 in/hr0.0 mm/hr 0.02 in0.5 mm
04:50 AM 52.6°F11.4°C 49.2°F9.6°C 88% 6.4 mph NW10.3 kmh NW 10.0 mph16.1 kmh 29.63 in1003.4 mb 0.00 in0.0 mm 0.00 in/hr0.0 mm/hr 0.02 in0.5 mm
05:00 AM 52.7°F11.5°C 49.2°F9.6°C 88% 0.9 mph N1.4 kmh N 2.0 mph3.2 kmh 29.63 in1003.4 mb 0.00 in0.0 mm 0.00 in/hr0.0 mm/hr 0.02 in0.5 mm
05:10 AM 52.5°F11.4°C 49.0°F9.4°C 88% 4.3 mph W6.9 kmh W 7.0 mph11.3 kmh 29.64 in1003.7 mb 0.00 in0.0 mm 0.00 in/hr0.0 mm/hr 0.02 in0.5 mm
05:20 AM 52.2°F11.2°C 48.8°F9.3°C 88% 2.6 mph WNW4.2 kmh WNW 4.0 mph6.4 kmh 29.64 in1003.7 mb 0.00 in0.0 mm 0.00 in/hr0.0 mm/hr 0.02 in0.5 mm
05:30 AM 51.9°F11.1°C 48.4°F9.1°C 88% 2.4 mph NW3.9 kmh NW 4.0 mph6.4 kmh 29.64 in1003.7 mb 0.00 in0.0 mm 0.00 in/hr0.0 mm/hr 0.02 in0.5 mm
05:40 AM 51.4°F10.8°C 48.0°F8.9°C 88% 0.6 mph N1.0 kmh N 5.0 mph8.0 kmh 29.65 in1004.1 mb 0.00 in0.0 mm 0.00 in/hr0.0 mm/hr 0.02 in0.5 mm
05:50 AM 51.0°F10.6°C 47.6°F8.7°C 88% Calm Calm -- 29.65 in1004.1 mb 0.00 in0.0 mm 0.00 in/hr0.0 mm/hr 0.02 in0.5 mm
06:00 AM 50.8°F10.4°C 47.7°F8.7°C 89% Calm Calm -- 29.65 in1004.1 mb 0.00 in0.0 mm 0.00 in/hr0.0 mm/hr 0.02 in0.5 mm
06:10 AM 50.9°F10.5°C 47.8°F8.8°C 89% Calm Calm -- 29.66 in1004.4 mb 0.00 in0.0 mm 0.00 in/hr0.0 mm/hr 0.02 in0.5 mm
06:20 AM 51.4°F10.8°C 48.2°F9.0°C 89% 2.9 mph WNW4.7 kmh WNW 6.0 mph9.7 kmh 29.66 in1004.4 mb 0.00 in0.0 mm 0.00 in/hr0.0 mm/hr 0.02 in0.5 mm
06:30 AM 52.2°F11.2°C 48.4°F9.1°C 87% 3.8 mph WNW6.1 kmh WNW 7.0 mph11.3 kmh 29.66 in1004.4 mb 0.01 in0.3 mm 0.06 in/hr1.5 mm/hr 0.03 in0.8 mm
06:40 AM 53.1°F11.7°C 48.4°F9.1°C 84% 3.5 mph WNW5.6 kmh WNW 10.0 mph16.1 kmh 29.67 in1004.7 mb 0.00 in0.0 mm 0.00 in/hr0.0 mm/hr 0.03 in0.8 mm
06:50 AM 53.3°F11.8°C 48.3°F9.1°C 83% 3.5 mph W5.6 kmh W 5.0 mph8.0 kmh 29.67 in1004.7 mb 0.00 in0.0 mm 0.00 in/hr0.0 mm/hr 0.03 in0.8 mm
07:00 AM 54.2°F12.3°C 48.8°F9.3°C 82% 3.5 mph W5.6 kmh W 5.0 mph8.0 kmh 29.67 in1004.7 mb 0.00 in0.0 mm 0.00 in/hr0.0 mm/hr 0.03 in0.8 mm
07:10 AM 55.2°F12.9°C 48.8°F9.3°C 79% 5.3 mph W8.5 kmh W 7.0 mph11.3 kmh 29.68 in1005.1 mb 0.00 in0.0 mm 0.00 in/hr0.0 mm/hr 0.03 in0.8 mm
07:20 AM 55.9°F13.3°C 49.1°F9.5°C 78% 4.9 mph NW7.9 kmh NW 5.0 mph8.0 kmh 29.68 in1005.1 mb 0.00 in0.0 mm 0.00 in/hr0.0 mm/hr 0.03 in0.8 mm
07:30 AM 56.9°F13.8°C 49.4°F9.7°C 76% 4.5 mph W7.2 kmh W 7.0 mph11.3 kmh 29.68 in1005.1 mb 0.00 in0.0 mm 0.00 in/hr0.0 mm/hr 0.03 in0.8 mm
07:40 AM 58.0°F14.4°C 50.1°F10.1°C 75% 4.3 mph WNW6.9 kmh WNW 9.0 mph14.5 kmh 29.68 in1005.1 mb 0.00 in0.0 mm 0.00 in/hr0.0 mm/hr 0.03 in0.8 mm
07:50 AM 59.0°F15.0°C 50.7°F10.4°C 74% Calm Calm -- 29.68 in1005.1 mb 0.00 in0.0 mm 0.00 in/hr0.0 mm/hr 0.03 in0.8 mm
08:00 AM 59.6°F15.3°C 50.2°F10.1°C 71% 6.2 mph N10.0 kmh N 11.0 mph17.7 kmh 29.68 in1005.1 mb 0.00 in0.0 mm 0.00 in/hr0.0 mm/hr 0.03 in0.8 mm
08:10 AM 60.2°F15.7°C 50.4°F10.2°C 70% 0.7 mph WSW1.1 kmh WSW -- 29.69 in1005.4 mb 0.00 in0.0 mm 0.00 in/hr0.0 mm/hr 0.03 in0.8 mm
08:20 AM 61.0°F16.1°C 50.3°F10.2°C 68% 1.2 mph WSW1.9 kmh WSW 9.0 mph14.5 kmh 29.69 in1005.4 mb 0.00 in0.0 mm 0.00 in/hr0.0 mm/hr 0.03 in0.8 mm
08:30 AM 62.0°F16.7°C 50.9°F10.5°C 67% 5.6 mph WSW9.0 kmh WSW 10.0 mph16.1 kmh 29.69 in1005.4 mb 0.00 in0.0 mm 0.00 in/hr0.0 mm/hr 0.03 in0.8 mm
08:40 AM 62.1°F16.7°C 50.6°F10.3°C 66% 5.5 mph WSW8.9 kmh WSW 11.0 mph17.7 kmh 29.69 in1005.4 mb 0.00 in0.0 mm 0.00 in/hr0.0 mm/hr 0.03 in0.8 mm
08:50 AM 62.6°F17.0°C 49.3°F9.6°C 62% 7.8 mph SW12.6 kmh SW 10.0 mph16.1 kmh 29.68 in1005.1 mb 0.00 in0.0 mm 0.00 in/hr0.0 mm/hr 0.03 in0.8 mm
09:00 AM 63.1°F17.3°C 49.5°F9.7°C 61% 7.6 mph N12.2 kmh N 13.0 mph20.9 kmh 29.68 in1005.1 mb 0.00 in0.0 mm 0.00 in/hr0.0 mm/hr 0.03 in0.8 mm
09:10 AM 64.3°F17.9°C 50.6°F10.3°C 61% 1.2 mph SW1.9 kmh SW 12.0 mph19.3 kmh 29.68 in1005.1 mb 0.00 in0.0 mm 0.00 in/hr0.0 mm/hr 0.03 in0.8 mm
09:20 AM 65.4°F18.6°C 50.2°F10.1°C 58% Calm Calm -- 29.69 in1005.4 mb 0.00 in0.0 mm 0.00 in/hr0.0 mm/hr 0.03 in0.8 mm
09:30 AM 66.2°F19.0°C 49.0°F9.4°C 54% 7.3 mph SW11.7 kmh SW 11.0 mph17.7 kmh 29.69 in1005.4 mb 0.00 in0.0 mm 0.00 in/hr0.0 mm/hr 0.03 in0.8 mm
09:40 AM 66.8°F19.3°C 49.6°F9.8°C 54% 2.8 mph WNW4.5 kmh WNW 10.0 mph16.1 kmh 29.68 in1005.1 mb 0.00 in0.0 mm 0.00 in/hr0.0 mm/hr 0.03 in0.8 mm
09:50 AM 67.6°F19.8°C 48.3°F9.1°C 50% 6.3 mph WNW10.1 kmh WNW 7.0 mph11.3 kmh 29.68 in1005.1 mb 0.00 in0.0 mm 0.00 in/hr0.0 mm/hr 0.03 in0.8 mm
10:00 AM 68.3°F20.2°C 48.9°F9.4°C 50% 4.7 mph SW7.6 kmh SW 12.0 mph19.3 kmh 29.68 in1005.1 mb 0.00 in0.0 mm 0.00 in/hr0.0 mm/hr 0.03 in0.8 mm
10:10 AM 69.0°F20.6°C 48.5°F9.2°C 48% 5.8 mph WSW9.3 kmh WSW 13.0 mph20.9 kmh 29.68 in1005.1 mb 0.00 in0.0 mm 0.00 in/hr0.0 mm/hr 0.03 in0.8 mm
10:20 AM 69.5°F20.8°C 48.4°F9.1°C 47% 7.0 mph WSW11.3 kmh WSW 12.0 mph19.3 kmh 29.68 in1005.1 mb 0.00 in0.0 mm 0.00 in/hr0.0 mm/hr 0.03 in0.8 mm
10:30 AM 69.4°F20.8°C 47.7°F8.7°C 46% 4.3 mph SSW6.9 kmh SSW 9.0 mph14.5 kmh 29.68 in1005.1 mb 0.00 in0.0 mm 0.00 in/hr0.0 mm/hr 0.03 in0.8 mm
10:40 AM 68.2°F20.1°C 47.2°F8.4°C 47% 10.6 mph N17.1 kmh N 14.0 mph22.5 kmh 29.68 in1005.1 mb 0.00 in0.0 mm 0.00 in/hr0.0 mm/hr 0.03 in0.8 mm
10:50 AM 67.3°F19.6°C 47.0°F8.3°C 48% 5.6 mph N9.0 kmh N 12.0 mph19.3 kmh 29.68 in1005.1 mb 0.00 in0.0 mm 0.00 in/hr0.0 mm/hr 0.03 in0.8 mm
11:00 AM 67.2°F19.6°C 47.4°F8.6°C 49% 10.9 mph SW17.5 kmh SW 17.0 mph27.4 kmh 29.68 in1005.1 mb 0.00 in0.0 mm 0.00 in/hr0.0 mm/hr 0.03 in0.8 mm
11:10 AM 67.0°F19.4°C 47.2°F8.4°C 49% 8.9 mph SW14.3 kmh SW 13.0 mph20.9 kmh 29.68 in1005.1 mb 0.00 in0.0 mm 0.00 in/hr0.0 mm/hr 0.03 in0.8 mm
11:20 AM 66.8°F19.3°C 47.5°F8.6°C 50% 8.8 mph WSW14.2 kmh WSW 13.0 mph20.9 kmh 29.68 in1005.1 mb 0.00 in0.0 mm 0.00 in/hr0.0 mm/hr 0.03 in0.8 mm
11:30 AM 66.7°F19.3°C 47.5°F8.6°C 50% 5.3 mph SW8.5 kmh SW 11.0 mph17.7 kmh 29.68 in1005.1 mb 0.00 in0.0 mm 0.00 in/hr0.0 mm/hr 0.03 in0.8 mm
11:40 AM 66.5°F19.2°C 46.7°F8.2°C 49% 5.5 mph N8.9 kmh N 11.0 mph17.7 kmh 29.68 in1005.1 mb 0.00 in0.0 mm 0.00 in/hr0.0 mm/hr 0.03 in0.8 mm
11:50 AM 66.5°F19.2°C 46.2°F7.9°C 48% 5.4 mph N8.7 kmh N 12.0 mph19.3 kmh 29.68 in1005.1 mb 0.00 in0.0 mm 0.00 in/hr0.0 mm/hr 0.03 in0.8 mm
12:00 PM 67.2°F19.6°C 46.8°F8.2°C 48% 7.0 mph SW11.3 kmh SW 12.0 mph19.3 kmh 29.68 in1005.1 mb 0.00 in0.0 mm 0.00 in/hr0.0 mm/hr 0.03 in0.8 mm
12:10 PM 67.1°F19.5°C 46.7°F8.2°C 48% 0.7 mph W1.1 kmh W 15.0 mph24.1 kmh 29.69 in1005.4 mb 0.00 in0.0 mm 0.00 in/hr0.0 mm/hr 0.03 in0.8 mm
12:20 PM 67.8°F19.9°C 46.2°F7.9°C 46% 9.7 mph SW15.6 kmh SW 14.0 mph22.5 kmh 29.68 in1005.1 mb 0.00 in0.0 mm 0.00 in/hr0.0 mm/hr 0.03 in0.8 mm
12:30 PM 68.7°F20.4°C 47.1°F8.4°C 46% 9.6 mph WSW15.4 kmh WSW 15.0 mph24.1 kmh 29.68 in1005.1 mb 0.00 in0.0 mm 0.00 in/hr0.0 mm/hr 0.03 in0.8 mm
12:40 PM 68.8°F20.4°C 47.7°F8.7°C 47% 8.7 mph WSW14.0 kmh WSW 12.0 mph19.3 kmh 29.68 in1005.1 mb 0.00 in0.0 mm 0.00 in/hr0.0 mm/hr 0.03 in0.8 mm
12:50 PM 69.4°F20.8°C 48.3°F9.1°C 47% 9.5 mph N15.3 kmh N 16.0 mph25.7 kmh 29.68 in1005.1 mb 0.00 in0.0 mm 0.00 in/hr0.0 mm/hr 0.03 in0.8 mm
01:00 PM 70.6°F21.4°C 48.8°F9.3°C 46% 6.8 mph W10.9 kmh W 12.0 mph19.3 kmh 29.68 in1005.1 mb 0.00 in0.0 mm 0.00 in/hr0.0 mm/hr 0.03 in0.8 mm
01:10 PM 72.3°F22.4°C 47.9°F8.8°C 42% 9.1 mph NW14.6 kmh NW 15.0 mph24.1 kmh 29.67 in1004.7 mb 0.00 in0.0 mm 0.00 in/hr0.0 mm/hr 0.03 in0.8 mm
01:20 PM 72.8°F22.7°C 45.7°F7.6°C 38% 14.6 mph W23.5 kmh W 17.0 mph27.4 kmh 29.66 in1004.4 mb 0.00 in0.0 mm 0.00 in/hr0.0 mm/hr 0.03 in0.8 mm
01:30 PM 73.3°F22.9°C 46.2°F7.9°C 38% 9.2 mph WSW14.8 kmh WSW 15.0 mph24.1 kmh 29.66 in1004.4 mb 0.00 in0.0 mm 0.00 in/hr0.0 mm/hr 0.03 in0.8 mm
01:40 PM 72.9°F22.7°C 46.5°F8.1°C 39% 6.8 mph SW10.9 kmh SW 10.0 mph16.1 kmh 29.66 in1004.4 mb 0.00 in0.0 mm 0.00 in/hr0.0 mm/hr 0.03 in0.8 mm
01:50 PM 73.1°F22.8°C 44.6°F7.0°C 36% 8.6 mph W13.8 kmh W 16.0 mph25.7 kmh 29.66 in1004.4 mb 0.00 in0.0 mm 0.00 in/hr0.0 mm/hr 0.03 in0.8 mm
02:00 PM 72.8°F22.7°C 45.7°F7.6°C 38% 6.4 mph WSW10.3 kmh WSW 11.0 mph17.7 kmh 29.66 in1004.4 mb 0.00 in0.0 mm 0.00 in/hr0.0 mm/hr 0.03 in0.8 mm
02:10 PM 73.0°F22.8°C 45.9°F7.7°C 38% 2.9 mph W4.7 kmh W 11.0 mph17.7 kmh 29.66 in1004.4 mb 0.00 in0.0 mm 0.00 in/hr0.0 mm/hr 0.03 in0.8 mm
02:20 PM 74.7°F23.7°C 45.9°F7.7°C 36% 9.4 mph N15.1 kmh N 14.0 mph22.5 kmh 29.65 in1004.1 mb 0.00 in0.0 mm 0.00 in/hr0.0 mm/hr 0.03 in0.8 mm
02:30 PM 74.4°F23.6°C 45.7°F7.6°C 36% 10.1 mph W16.3 kmh W 15.0 mph24.1 kmh 29.65 in1004.1 mb 0.00 in0.0 mm 0.00 in/hr0.0 mm/hr 0.03 in0.8 mm
02:40 PM 75.1°F23.9°C 45.5°F7.5°C 35% 10.6 mph SW17.1 kmh SW 16.0 mph25.7 kmh 29.65 in1004.1 mb 0.00 in0.0 mm 0.00 in/hr0.0 mm/hr 0.03 in0.8 mm
02:50 PM 74.6°F23.7°C 45.8°F7.7°C 36% 5.5 mph WSW8.9 kmh WSW 9.0 mph14.5 kmh 29.65 in1004.1 mb 0.00 in0.0 mm 0.00 in/hr0.0 mm/hr 0.03 in0.8 mm
03:00 PM 74.8°F23.8°C 45.3°F7.4°C 35% 7.5 mph SW12.1 kmh SW 13.0 mph20.9 kmh 29.65 in1004.1 mb 0.00 in0.0 mm 0.00 in/hr0.0 mm/hr 0.03 in0.8 mm
03:10 PM 74.3°F23.5°C 47.0°F8.3°C 38% 0.1 mph SW0.2 kmh SW 1.0 mph1.6 kmh 29.64 in1003.7 mb 0.00 in0.0 mm 0.00 in/hr0.0 mm/hr 0.03 in0.8 mm
03:20 PM 74.0°F23.3°C 45.4°F7.4°C 36% 5.2 mph N8.4 kmh N 10.0 mph16.1 kmh 29.64 in1003.7 mb 0.00 in0.0 mm 0.00 in/hr0.0 mm/hr 0.03 in0.8 mm
03:30 PM 73.1°F22.8°C 45.3°F7.4°C 37% 10.9 mph W17.5 kmh W 15.0 mph24.1 kmh 29.64 in1003.7 mb 0.00 in0.0 mm 0.00 in/hr0.0 mm/hr 0.03 in0.8 mm
03:40 PM 74.2°F23.4°C 46.2°F7.9°C 37% 1.2 mph WSW1.9 kmh WSW 10.0 mph16.1 kmh 29.64 in1003.7 mb 0.00 in0.0 mm 0.00 in/hr0.0 mm/hr 0.03 in0.8 mm
03:50 PM 74.9°F23.8°C 45.4°F7.4°C 35% 8.4 mph N13.5 kmh N 10.0 mph16.1 kmh 29.64 in1003.7 mb 0.00 in0.0 mm 0.00 in/hr0.0 mm/hr 0.03 in0.8 mm
04:00 PM 74.5°F23.6°C 45.8°F7.7°C 36% 8.1 mph SW13.0 kmh SW 12.0 mph19.3 kmh 29.64 in1003.7 mb 0.00 in0.0 mm 0.00 in/hr0.0 mm/hr 0.03 in0.8 mm
04:10 PM 73.8°F23.2°C 45.1°F7.3°C 36% 10.2 mph SW16.4 kmh SW 15.0 mph24.1 kmh 29.64 in1003.7 mb 0.00 in0.0 mm 0.00 in/hr0.0 mm/hr 0.03 in0.8 mm
04:20 PM 74.3°F23.5°C 44.8°F7.1°C 35% 9.8 mph N15.8 kmh N 14.0 mph22.5 kmh 29.63 in1003.4 mb 0.00 in0.0 mm 0.00 in/hr0.0 mm/hr 0.03 in0.8 mm
04:30 PM 74.6°F23.7°C 45.9°F7.7°C 36% 5.4 mph N8.7 kmh N 10.0 mph16.1 kmh 29.63 in1003.4 mb 0.00 in0.0 mm 0.00 in/hr0.0 mm/hr 0.03 in0.8 mm
04:40 PM 73.9°F23.3°C 45.3°F7.4°C 36% 6.5 mph N10.5 kmh N 8.0 mph12.9 kmh 29.63 in1003.4 mb 0.00 in0.0 mm 0.00 in/hr0.0 mm/hr 0.03 in0.8 mm
04:50 PM 73.4°F23.0°C 45.5°F7.5°C 37% 6.1 mph WSW9.8 kmh WSW 11.0 mph17.7 kmh 29.63 in1003.4 mb 0.00 in0.0 mm 0.00 in/hr0.0 mm/hr 0.03 in0.8 mm
05:00 PM 74.2°F23.4°C 45.5°F7.5°C 36% 6.3 mph W10.1 kmh W 10.0 mph16.1 kmh 29.63 in1003.4 mb 0.00 in0.0 mm 0.00 in/hr0.0 mm/hr 0.03 in0.8 mm
05:10 PM 75.3°F24.1°C 45.7°F7.6°C 35% 7.6 mph WSW12.2 kmh WSW 15.0 mph24.1 kmh 29.63 in1003.4 mb 0.00 in0.0 mm 0.00 in/hr0.0 mm/hr 0.03 in0.8 mm
05:20 PM 74.3°F23.5°C 45.6°F7.6°C 36% 6.0 mph W9.7 kmh W 11.0 mph17.7 kmh 29.63 in1003.4 mb 0.00 in0.0 mm 0.00 in/hr0.0 mm/hr 0.03 in0.8 mm
05:30 PM 74.4°F23.6°C 45.0°F7.2°C 35% 8.2 mph WSW13.2 kmh WSW 14.0 mph22.5 kmh 29.63 in1003.4 mb 0.00 in0.0 mm 0.00 in/hr0.0 mm/hr 0.03 in0.8 mm
05:40 PM 74.6°F23.7°C 45.9°F7.7°C 36% 8.9 mph WSW14.3 kmh WSW 16.0 mph25.7 kmh 29.64 in1003.7 mb 0.00 in0.0 mm 0.00 in/hr0.0 mm/hr 0.03 in0.8 mm
05:50 PM 75.0°F23.9°C 46.2°F7.9°C 36% 4.5 mph SW7.2 kmh SW 11.0 mph17.7 kmh 29.64 in1003.7 mb 0.00 in0.0 mm 0.00 in/hr0.0 mm/hr 0.03 in0.8 mm
06:00 PM 74.1°F23.4°C 46.2°F7.9°C 37% 5.2 mph SW8.4 kmh SW 12.0 mph19.3 kmh 29.64 in1003.7 mb 0.00 in0.0 mm 0.00 in/hr0.0 mm/hr 0.03 in0.8 mm
06:10 PM 73.3°F22.9°C 46.1°F7.8°C 38% 8.8 mph WSW14.2 kmh WSW 14.0 mph22.5 kmh 29.64 in1003.7 mb 0.00 in0.0 mm 0.00 in/hr0.0 mm/hr 0.03 in0.8 mm
06:20 PM 72.5°F22.5°C 49.3°F9.6°C 44% Calm Calm -- 29.65 in1004.1 mb 0.00 in0.0 mm 0.00 in/hr0.0 mm/hr 0.03 in0.8 mm
06:30 PM 70.6°F21.4°C 50.5°F10.3°C 49% Calm Calm -- 29.65 in1004.1 mb 0.00 in0.0 mm 0.00 in/hr0.0 mm/hr 0.03 in0.8 mm
06:40 PM 69.5°F20.8°C 50.6°F10.3°C 51% Calm Calm -- 29.65 in1004.1 mb 0.00 in0.0 mm 0.00 in/hr0.0 mm/hr 0.03 in0.8 mm
06:50 PM 68.4°F20.2°C 50.6°F10.3°C 53% 1.9 mph SE3.1 kmh SE 9.0 mph14.5 kmh 29.65 in1004.1 mb 0.00 in0.0 mm 0.00 in/hr0.0 mm/hr 0.03 in0.8 mm
07:00 PM 67.4°F19.7°C 50.7°F10.4°C 55% 2.7 mph N4.3 kmh N 6.0 mph9.7 kmh 29.65 in1004.1 mb 0.00 in0.0 mm 0.00 in/hr0.0 mm/hr 0.03 in0.8 mm
07:10 PM 66.7°F19.3°C 51.0°F10.6°C 57% Calm Calm -- 29.66 in1004.4 mb 0.00 in0.0 mm 0.00 in/hr0.0 mm/hr 0.03 in0.8 mm
07:20 PM 66.0°F18.9°C 50.4°F10.2°C 57% Calm Calm -- 29.67 in1004.7 mb 0.00 in0.0 mm 0.00 in/hr0.0 mm/hr 0.03 in0.8 mm
07:30 PM 65.5°F18.6°C 51.2°F10.7°C 60% Calm Calm -- 29.67 in1004.7 mb 0.00 in0.0 mm 0.00 in/hr0.0 mm/hr 0.03 in0.8 mm
07:40 PM 64.9°F18.3°C 51.1°F10.6°C 61% Calm Calm -- 29.67 in1004.7 mb 0.00 in0.0 mm 0.00 in/hr0.0 mm/hr 0.03 in0.8 mm
07:50 PM 64.4°F18.0°C 51.1°F10.6°C 62% Calm Calm -- 29.68 in1005.1 mb 0.00 in0.0 mm 0.00 in/hr0.0 mm/hr 0.03 in0.8 mm
08:00 PM 64.0°F17.8°C 51.1°F10.6°C 63% Calm Calm -- 29.68 in1005.1 mb 0.00 in0.0 mm 0.00 in/hr0.0 mm/hr 0.03 in0.8 mm
08:10 PM 63.6°F17.6°C 51.2°F10.7°C 64% Calm Calm -- 29.68 in1005.1 mb 0.00 in0.0 mm 0.00 in/hr0.0 mm/hr 0.03 in0.8 mm
08:20 PM 63.3°F17.4°C 51.3°F10.7°C 65% Calm Calm -- 29.69 in1005.4 mb 0.00 in0.0 mm 0.00 in/hr0.0 mm/hr 0.03 in0.8 mm
08:30 PM 62.9°F17.2°C 51.4°F10.8°C 66% Calm Calm -- 29.69 in1005.4 mb 0.00 in0.0 mm 0.00 in/hr0.0 mm/hr 0.03 in0.8 mm
08:40 PM 62.4°F16.9°C 51.3°F10.7°C 67% Calm Calm -- 29.70 in1005.8 mb 0.00 in0.0 mm 0.00 in/hr0.0 mm/hr 0.03 in0.8 mm
08:50 PM 61.9°F16.6°C 51.2°F10.7°C 68% Calm Calm -- 29.70 in1005.8 mb 0.00 in0.0 mm 0.00 in/hr0.0 mm/hr 0.03 in0.8 mm
09:00 PM 61.5°F16.4°C 51.6°F10.9°C 70% Calm Calm -- 29.70 in1005.8 mb 0.00 in0.0 mm 0.00 in/hr0.0 mm/hr 0.03 in0.8 mm
09:10 PM 61.3°F16.3°C 51.9°F11.1°C 71% Calm Calm -- 29.71 in1006.1 mb 0.00 in0.0 mm 0.00 in/hr0.0 mm/hr 0.03 in0.8 mm
09:20 PM 61.3°F16.3°C 51.8°F11.0°C 71% Calm Calm -- 29.71 in1006.1 mb 0.00 in0.0 mm 0.00 in/hr0.0 mm/hr 0.03 in0.8 mm
09:30 PM 61.2°F16.2°C 52.1°F11.2°C 72% Calm Calm -- 29.71 in1006.1 mb 0.00 in0.0 mm 0.00 in/hr0.0 mm/hr 0.03 in0.8 mm
09:40 PM 61.2°F16.2°C 52.1°F11.2°C 72% Calm Calm -- 29.72 in1006.4 mb 0.00 in0.0 mm 0.00 in/hr0.0 mm/hr 0.03 in0.8 mm
09:50 PM 61.2°F16.2°C 52.1°F11.2°C 72% Calm Calm -- 29.73 in1006.8 mb 0.00 in0.0 mm 0.00 in/hr0.0 mm/hr 0.03 in0.8 mm
10:00 PM 61.2°F16.2°C 52.1°F11.2°C 72% Calm Calm -- 29.73 in1006.8 mb 0.00 in0.0 mm 0.00 in/hr0.0 mm/hr 0.03 in0.8 mm
10:10 PM 61.1°F16.2°C 52.0°F11.1°C 72% Calm Calm -- 29.73 in1006.8 mb 0.00 in0.0 mm 0.00 in/hr0.0 mm/hr 0.03 in0.8 mm
10:20 PM 61.0°F16.1°C 51.9°F11.1°C 72% Calm Calm -- 29.73 in1006.8 mb 0.00 in0.0 mm 0.00 in/hr0.0 mm/hr 0.03 in0.8 mm
10:30 PM 60.8°F16.0°C 51.7°F10.9°C 72% Calm Calm -- 29.73 in1006.8 mb 0.00 in0.0 mm 0.00 in/hr0.0 mm/hr 0.03 in0.8 mm
10:40 PM 60.5°F15.8°C 51.8°F11.0°C 73% Calm Calm -- 29.73 in1006.8 mb 0.00 in0.0 mm 0.00 in/hr0.0 mm/hr 0.03 in0.8 mm
10:50 PM 60.2°F15.7°C 51.5°F10.8°C 73% Calm Calm -- 29.73 in1006.8 mb 0.00 in0.0 mm 0.00 in/hr0.0 mm/hr 0.03 in0.8 mm
11:00 PM 59.8°F15.4°C 51.5°F10.8°C 74% Calm Calm -- 29.73 in1006.8 mb 0.00 in0.0 mm 0.00 in/hr0.0 mm/hr 0.04 in1.0 mm
11:10 PM 59.4°F15.2°C 51.5°F10.8°C 75% Calm Calm -- 29.73 in1006.8 mb 0.00 in0.0 mm 0.00 in/hr0.0 mm/hr 0.04 in1.0 mm
11:20 PM 59.0°F15.0°C 51.4°F10.8°C 76% Calm Calm -- 29.73 in1006.8 mb 0.00 in0.0 mm 0.00 in/hr0.0 mm/hr 0.04 in1.0 mm
11:30 PM 58.7°F14.8°C 51.5°F10.8°C 77% Calm Calm -- 29.73 in1006.8 mb 0.00 in0.0 mm 0.00 in/hr0.0 mm/hr 0.04 in1.0 mm
11:40 PM 58.6°F14.8°C 51.8°F11.0°C 78% Calm Calm -- 29.73 in1006.8 mb 0.00 in0.0 mm 0.00 in/hr0.0 mm/hr 0.04 in1.0 mm
11:50 PM 58.3°F14.6°C 51.5°F10.8°C 78% 0.1 mph W0.2 kmh W 1.0 mph1.6 kmh 29.73 in1006.8 mb 0.00 in0.0 mm 0.00 in/hr0.0 mm/hr 0.04 in1.0 mm